Time;durP1;ratioP1;P1;durP2;ratioP2;P2;SDS_P1;SDS_P2;PMS_P1;PMS_P2;Temp;Humidity;BMP_temperature;BMP_pressure;BME280_temperature;BME280_humidity;BME280_pressure;Samples;Min_cycle;Max_cycle;Signal;HPM_P1;HPM_P2
2022/02/17 00:00:31;;;;;;;81.83;44.03;;;;;;;;;;4449121;32;20213;-55
2022/02/17 00:02:56;;;;;;;88.83;45.53;;;;;;;;;;4441095;32;20304;-55
2022/02/17 00:05:23;;;;;;;95.27;47.50;;;;;;;;;;4464454;32;20275;-57
2022/02/17 00:07:50;;;;;;;88.83;49.23;;;;;;;;;;4464296;32;20220;-55
2022/02/17 00:10:16;;;;;;;100.53;50.30;;;;;;;;;;4453520;32;20209;-55
2022/02/17 00:12:42;;;;;;;109.37;53.07;;;;;;;;;;4448587;32;20353;-56
2022/02/17 00:15:08;;;;;;;88.53;47.47;;;;;;;;;;4448763;32;20623;-55
2022/02/17 00:17:34;;;;;;;103.43;51.73;;;;;;;;;;4448532;32;20541;-55
2022/02/17 00:20:00;;;;;;;102.63;52.43;;;;;;;;;;4448757;32;20324;-56
2022/02/17 00:22:26;;;;;;;97.40;52.83;;;;;;;;;;4448244;32;20677;-55
2022/02/17 00:24:51;;;;;;;108.27;52.80;;;;;;;;;;4448561;32;20673;-58
2022/02/17 00:27:17;;;;;;;111.50;54.80;;;;;;;;;;4447026;32;20527;-57
2022/02/17 00:29:43;;;;;;;90.80;51.00;;;;;;;;;;4448275;32;20395;-57
2022/02/17 00:32:09;;;;;;;103.20;48.80;;;;;;;;;;4448053;32;20196;-56
2022/02/17 00:34:34;;;;;;;91.97;48.97;;;;;;;;;;4448428;32;20291;-56
2022/02/17 00:37:02;;;;;;;74.37;39.77;;;;;;;;;;4448565;32;20700;-56
2022/02/17 00:39:28;;;;;;;59.23;31.83;;;;;;;;;;4448615;32;20335;-56
2022/02/17 00:41:53;;;;;;;50.60;26.70;;;;;;;;;;4447952;32;20283;-57
2022/02/17 00:44:19;;;;;;;59.33;33.03;;;;;;;;;;4446878;32;20255;-55
2022/02/17 00:46:45;;;;;;;71.07;36.47;;;;;;;;;;4448234;32;20804;-56
2022/02/17 00:49:10;;;;;;;67.27;36.93;;;;;;;;;;4447850;32;20315;-57
2022/02/17 00:51:36;;;;;;;56.30;33.53;;;;;;;;;;4448313;32;20245;-55
2022/02/17 00:54:01;;;;;;;50.43;30.83;;;;;;;;;;4447369;32;20244;-56
2022/02/17 00:56:27;;;;;;;50.20;27.03;;;;;;;;;;4447691;32;20291;-57
2022/02/17 00:58:52;;;;;;;50.17;28.80;;;;;;;;;;4448206;32;20235;-57
2022/02/17 01:01:18;;;;;;;54.43;28.23;;;;;;;;;;4447819;32;20383;-55
2022/02/17 01:03:43;;;;;;;52.27;30.90;;;;;;;;;;4447980;32;20525;-56
2022/02/17 01:06:10;;;;;;;59.20;28.17;;;;;;;;;;4439619;32;20558;-56
2022/02/17 01:08:35;;;;;;;53.90;29.17;;;;;;;;;;4432366;32;20322;-56
2022/02/17 01:11:01;;;;;;;46.23;28.27;;;;;;;;;;4430926;32;20296;-56
2022/02/17 01:13:27;;;;;;;48.07;27.27;;;;;;;;;;4438298;32;20284;-56
2022/02/17 01:15:53;;;;;;;43.63;25.43;;;;;;;;;;4446566;32;20398;-56
2022/02/17 01:18:18;;;;;;;59.90;28.60;;;;;;;;;;4447751;32;20274;-56
2022/02/17 01:20:46;;;;;;;61.67;30.13;;;;;;;;;;4448200;32;20325;-58
2022/02/17 01:23:12;;;;;;;55.60;30.77;;;;;;;;;;4447672;32;20217;-56
2022/02/17 01:25:38;;;;;;;56.53;28.03;;;;;;;;;;4444192;32;20326;-56
2022/02/17 01:28:04;;;;;;;47.63;25.53;;;;;;;;;;4447454;32;20379;-56
2022/02/17 01:30:29;;;;;;;48.20;25.27;;;;;;;;;;4447728;32;20267;-57
2022/02/17 01:32:55;;;;;;;38.50;22.70;;;;;;;;;;4446320;32;20681;-56
2022/02/17 01:35:20;;;;;;;43.03;24.30;;;;;;;;;;4447370;32;20291;-56
2022/02/17 01:37:46;;;;;;;54.83;26.53;;;;;;;;;;4447296;32;20297;-56
2022/02/17 01:40:13;;;;;;;47.17;25.13;;;;;;;;;;4447433;32;20306;-57
2022/02/17 01:42:39;;;;;;;52.87;27.17;;;;;;;;;;4446102;32;20772;-56
2022/02/17 01:45:06;;;;;;;47.67;28.43;;;;;;;;;;4447582;32;20292;-55
2022/02/17 01:47:32;;;;;;;55.97;28.33;;;;;;;;;;4447180;32;20340;-57
2022/02/17 01:49:58;;;;;;;48.67;28.57;;;;;;;;;;4446289;32;20224;-56
2022/02/17 01:52:24;;;;;;;49.90;29.40;;;;;;;;;;4445889;32;20225;-56
2022/02/17 01:54:49;;;;;;;57.83;29.80;;;;;;;;;;4447583;32;20288;-56
2022/02/17 01:57:19;;;;;;;65.93;33.90;;;;;;;;;;4446856;32;20220;-56
2022/02/17 01:59:45;;;;;;;62.37;37.03;;;;;;;;;;4447637;32;20693;-56
2022/02/17 02:02:12;;;;;;;77.63;39.80;;;;;;;;;;4446825;32;20568;-56
2022/02/17 02:04:38;;;;;;;70.47;35.30;;;;;;;;;;4447693;32;20240;-56
2022/02/17 02:07:07;;;;;;;50.63;28.73;;;;;;;;;;4447334;32;20247;-57
2022/02/17 02:09:33;;;;;;;38.60;25.80;;;;;;;;;;4446104;32;20692;-56
2022/02/17 02:11:59;;;;;;;48.47;26.30;;;;;;;;;;4445814;32;20245;-56
2022/02/17 02:14:25;;;;;;;45.60;25.23;;;;;;;;;;4447080;32;20287;-56
2022/02/17 02:16:52;;;;;;;48.17;25.97;;;;;;;;;;4447166;32;20266;-56
2022/02/17 02:19:19;;;;;;;59.03;31.43;;;;;;;;;;4447174;32;20747;-56
2022/02/17 02:21:44;;;;;;;55.73;33.33;;;;;;;;;;4447343;32;20608;-56
2022/02/17 02:24:10;;;;;;;61.00;32.83;;;;;;;;;;4447574;32;20260;-56
2022/02/17 02:26:35;;;;;;;82.03;37.00;;;;;;;;;;4433508;32;20332;-56
2022/02/17 02:29:01;;;;;;;82.57;40.23;;;;;;;;;;4462961;32;20733;-57
2022/02/17 02:31:27;;;;;;;81.77;38.37;;;;;;;;;;4462915;32;20288;-56
2022/02/17 02:33:52;;;;;;;77.63;37.37;;;;;;;;;;4462762;32;20259;-56
2022/02/17 02:36:18;;;;;;;66.10;35.93;;;;;;;;;;4453524;32;20351;-56
2022/02/17 02:38:44;;;;;;;71.87;38.70;;;;;;;;;;4447183;32;20253;-56
2022/02/17 02:41:09;;;;;;;73.67;34.43;;;;;;;;;;4447210;32;20292;-57
2022/02/17 02:43:38;;;;;;;50.20;27.00;;;;;;;;;;4446962;32;20291;-56
2022/02/17 02:46:06;;;;;;;58.40;33.53;;;;;;;;;;4447066;32;20535;-56
2022/02/17 02:48:31;;;;;;;61.33;31.93;;;;;;;;;;4446635;32;20699;-55
2022/02/17 02:50:56;;;;;;;67.43;30.37;;;;;;;;;;4447314;32;20351;-55
2022/02/17 02:53:22;;;;;;;57.20;28.53;;;;;;;;;;4446914;32;20260;-55
2022/02/17 02:55:49;;;;;;;67.33;33.60;;;;;;;;;;4430758;32;20634;-56
2022/02/17 02:58:16;;;;;;;68.30;34.10;;;;;;;;;;4446963;32;20347;-56
2022/02/17 03:00:43;;;;;;;54.00;31.33;;;;;;;;;;4434345;32;20236;-56
2022/02/17 03:03:09;;;;;;;38.70;22.37;;;;;;;;;;4447040;32;20317;-56
2022/02/17 03:05:35;;;;;;;33.67;18.70;;;;;;;;;;4435530;32;20771;-56
2022/02/17 03:08:01;;;;;;;23.63;12.63;;;;;;;;;;4449852;32;20544;-57
2022/02/17 03:10:30;;;;;;;31.73;12.77;;;;;;;;;;4435436;32;20306;-57
2022/02/17 03:12:57;;;;;;;25.80;12.77;;;;;;;;;;4442536;32;20233;-56
2022/02/17 03:15:23;;;;;;;24.23;16.10;;;;;;;;;;4436660;32;20354;-55
2022/02/17 03:17:50;;;;;;;30.50;17.87;;;;;;;;;;4449385;32;20250;-55
2022/02/17 03:20:16;;;;;;;27.73;17.17;;;;;;;;;;4449628;32;20256;-56
2022/02/17 03:22:41;;;;;;;36.33;20.47;;;;;;;;;;4449303;32;20293;-56
2022/02/17 03:25:09;;;;;;;40.40;21.33;;;;;;;;;;4449458;32;20284;-56
2022/02/17 03:27:35;;;;;;;38.53;22.83;;;;;;;;;;4462645;32;20315;-56
2022/02/17 03:30:01;;;;;;;38.93;18.73;;;;;;;;;;4465212;32;20298;-57
2022/02/17 03:32:27;;;;;;;38.03;15.23;;;;;;;;;;4464901;32;20216;-57
2022/02/17 03:34:53;;;;;;;25.87;14.03;;;;;;;;;;4465348;32;20341;-57
2022/02/17 03:37:19;;;;;;;30.77;19.53;;;;;;;;;;4449235;32;20644;-57
2022/02/17 03:39:44;;;;;;;46.43;22.90;;;;;;;;;;4449490;32;20387;-57
2022/02/17 03:42:10;;;;;;;44.40;19.90;;;;;;;;;;4448822;32;20264;-55
2022/02/17 03:44:35;;;;;;;51.17;26.23;;;;;;;;;;4449305;32;20296;-55
2022/02/17 03:47:01;;;;;;;36.67;22.47;;;;;;;;;;4447757;32;20652;-56
2022/02/17 03:49:26;;;;;;;42.20;21.60;;;;;;;;;;4448777;32;20241;-56
2022/02/17 03:51:52;;;;;;;35.57;21.87;;;;;;;;;;4434908;32;20650;-56
2022/02/17 03:54:18;;;;;;;39.33;22.43;;;;;;;;;;4448551;32;20272;-56
2022/02/17 03:56:44;;;;;;;40.83;22.47;;;;;;;;;;4441135;32;20345;-56
2022/02/17 03:59:10;;;;;;;49.53;24.00;;;;;;;;;;4434960;32;20692;-56
2022/02/17 04:01:37;;;;;;;47.50;24.53;;;;;;;;;;4448634;32;20240;-56
2022/02/17 04:04:05;;;;;;;36.07;23.43;;;;;;;;;;4449185;32;20573;-56
2022/02/17 04:06:31;;;;;;;39.33;24.17;;;;;;;;;;4447587;32;20228;-55
2022/02/17 04:08:57;;;;;;;44.63;25.03;;;;;;;;;;4448787;32;20267;-56
2022/02/17 04:11:23;;;;;;;41.03;25.57;;;;;;;;;;4448513;32;20298;-55
2022/02/17 04:13:49;;;;;;;48.73;27.07;;;;;;;;;;4448646;32;20708;-55
2022/02/17 04:16:17;;;;;;;52.23;27.33;;;;;;;;;;4448340;32;20370;-56
2022/02/17 04:18:43;;;;;;;42.30;25.47;;;;;;;;;;4448641;32;20332;-56
2022/02/17 04:21:10;;;;;;;47.87;24.83;;;;;;;;;;4448705;32;20288;-57
2022/02/17 04:23:36;;;;;;;53.13;25.27;;;;;;;;;;4448458;32;20549;-57
2022/02/17 04:26:01;;;;;;;47.20;25.23;;;;;;;;;;4448397;32;20364;-57
2022/02/17 04:28:27;;;;;;;45.77;22.17;;;;;;;;;;4448422;32;20467;-56
2022/02/17 04:30:52;;;;;;;38.27;24.17;;;;;;;;;;4448362;32;20292;-56
2022/02/17 04:33:18;;;;;;;36.73;22.03;;;;;;;;;;4448605;32;20257;-55
2022/02/17 04:35:43;;;;;;;37.10;21.00;;;;;;;;;;4448365;32;20283;-55
2022/02/17 04:38:09;;;;;;;43.57;25.93;;;;;;;;;;4448201;32;20256;-55
2022/02/17 04:43:18;;;;;;;53.07;25.77;;;;;;;;;;4448019;32;20346;-54
2022/02/17 04:45:44;;;;;;;52.50;26.10;;;;;;;;;;4448377;32;20303;-55
2022/02/17 04:48:09;;;;;;;69.00;34.00;;;;;;;;;;4447737;32;20385;-56
2022/02/17 04:50:35;;;;;;;46.33;27.90;;;;;;;;;;4447734;32;20363;-56
2022/02/17 04:53:00;;;;;;;45.87;25.83;;;;;;;;;;4448012;32;20555;-56
2022/02/17 04:55:26;;;;;;;44.40;25.90;;;;;;;;;;4448139;32;20330;-57
2022/02/17 04:57:51;;;;;;;45.63;24.80;;;;;;;;;;4447781;32;20221;-56
2022/02/17 05:00:17;;;;;;;48.90;26.37;;;;;;;;;;4448094;32;20307;-55
2022/02/17 05:02:43;;;;;;;55.67;29.40;;;;;;;;;;4447765;32;20336;-56
2022/02/17 05:05:08;;;;;;;49.20;27.83;;;;;;;;;;4446627;32;20327;-57
2022/02/17 05:07:34;;;;;;;45.73;25.10;;;;;;;;;;4446375;32;20325;-55
2022/02/17 05:10:00;;;;;;;43.13;24.63;;;;;;;;;;4447915;32;20324;-57
2022/02/17 05:12:25;;;;;;;53.90;25.03;;;;;;;;;;4447456;32;20698;-55
2022/02/17 05:14:51;;;;;;;53.50;26.27;;;;;;;;;;4432906;32;20291;-57
2022/02/17 05:17:17;;;;;;;48.17;24.40;;;;;;;;;;4447390;32;20228;-55
2022/02/17 05:19:43;;;;;;;43.57;23.90;;;;;;;;;;4447610;32;20767;-54
2022/02/17 05:22:08;;;;;;;36.83;20.20;;;;;;;;;;4446675;32;20603;-55
2022/02/17 05:24:34;;;;;;;39.50;22.80;;;;;;;;;;4446547;32;20543;-56
2022/02/17 05:26:59;;;;;;;37.30;21.83;;;;;;;;;;4447253;32;20224;-55
2022/02/17 05:29:25;;;;;;;36.60;22.03;;;;;;;;;;4447131;32;20291;-55
2022/02/17 05:31:51;;;;;;;35.80;22.73;;;;;;;;;;4447250;32;20312;-55
2022/02/17 05:34:18;;;;;;;39.40;21.50;;;;;;;;;;4447351;32;20259;-55
2022/02/17 05:36:44;;;;;;;56.90;22.87;;;;;;;;;;4447193;32;20243;-55
2022/02/17 05:39:09;;;;;;;43.87;23.93;;;;;;;;;;4447559;32;20232;-55
2022/02/17 05:41:35;;;;;;;42.60;23.30;;;;;;;;;;4447122;32;20284;-55
2022/02/17 05:44:00;;;;;;;41.17;24.93;;;;;;;;;;4447524;32;20289;-56
2022/02/17 05:46:26;;;;;;;48.53;26.90;;;;;;;;;;4446571;32;20267;-54
2022/02/17 05:48:51;;;;;;;47.83;27.03;;;;;;;;;;4447020;32;20655;-56
2022/02/17 05:51:18;;;;;;;47.10;26.47;;;;;;;;;;4445684;32;20430;-55
2022/02/17 05:53:44;;;;;;;63.50;34.23;;;;;;;;;;4447135;32;20268;-54
2022/02/17 05:56:10;;;;;;;72.50;35.57;;;;;;;;;;4446860;32;20288;-56
2022/02/17 05:58:35;;;;;;;56.57;33.40;;;;;;;;;;4447212;32;20286;-55
2022/02/17 06:01:01;;;;;;;64.20;37.13;;;;;;;;;;4447238;32;20307;-56
2022/02/17 06:03:27;;;;;;;70.23;39.57;;;;;;;;;;4446623;32;20518;-55
2022/02/17 06:05:53;;;;;;;97.40;45.87;;;;;;;;;;4447010;32;20643;-56
2022/02/17 06:08:19;;;;;;;78.70;46.63;;;;;;;;;;4446650;32;20310;-56
2022/02/17 06:10:44;;;;;;;87.27;48.63;;;;;;;;;;4446590;32;20369;-56
2022/02/17 06:13:10;;;;;;;89.07;50.47;;;;;;;;;;4446524;32;20236;-55
2022/02/17 06:15:36;;;;;;;111.90;50.17;;;;;;;;;;4447076;32;20272;-57
2022/02/17 06:18:03;;;;;;;94.23;48.10;;;;;;;;;;4446958;32;20483;-55
2022/02/17 06:20:28;;;;;;;87.80;48.63;;;;;;;;;;4445522;32;20282;-56
2022/02/17 06:22:53;;;;;;;95.20;49.40;;;;;;;;;;4447125;32;20601;-55
2022/02/17 06:25:19;;;;;;;82.77;46.07;;;;;;;;;;4447797;32;20291;-55
2022/02/17 06:27:46;;;;;;;83.33;43.97;;;;;;;;;;4446406;32;20319;-57
2022/02/17 06:30:12;;;;;;;72.20;38.00;;;;;;;;;;4446892;32;20212;-57
2022/02/17 06:32:52;;;;;;;76.20;39.03;;;;;;;;;;4449739;32;20212;-56
2022/02/17 06:35:20;;;;;;;86.17;45.17;;;;;;;;;;4449936;32;20229;-57
2022/02/17 06:37:46;;;;;;;68.67;41.40;;;;;;;;;;4446421;32;20725;-56
2022/02/17 06:40:13;;;;;;;66.27;38.07;;;;;;;;;;4447549;32;20600;-58
2022/02/17 06:42:38;;;;;;;59.67;33.80;;;;;;;;;;4444163;32;20499;-57
2022/02/17 06:45:04;;;;;;;64.60;34.13;;;;;;;;;;4446409;32;20310;-57
2022/02/17 06:47:30;;;;;;;57.23;33.63;;;;;;;;;;4445564;32;20263;-58
2022/02/17 06:49:55;;;;;;;67.70;38.30;;;;;;;;;;4446309;32;20300;-57
2022/02/17 06:52:22;;;;;;;94.33;52.67;;;;;;;;;;4445821;32;20242;-58
2022/02/17 06:54:48;;;;;;;83.37;46.00;;;;;;;;;;4446739;32;20225;-57
2022/02/17 06:57:20;;;;;;;95.80;57.53;;;;;;;;;;4447402;32;20673;-58
2022/02/17 06:59:46;;;;;;;79.63;43.87;;;;;;;;;;4447669;32;20647;-57
2022/02/17 07:02:12;;;;;;;69.20;39.50;;;;;;;;;;4448092;32;20220;-57
2022/02/17 07:04:38;;;;;;;73.33;42.20;;;;;;;;;;4449474;32;20308;-56
2022/02/17 07:07:03;;;;;;;101.43;55.33;;;;;;;;;;4449005;32;20583;-56
2022/02/17 07:09:29;;;;;;;84.57;46.17;;;;;;;;;;4448271;32;20302;-56
2022/02/17 07:11:55;;;;;;;74.60;43.40;;;;;;;;;;4449032;32;20313;-57
2022/02/17 07:14:23;;;;;;;99.90;52.87;;;;;;;;;;4435224;32;20257;-57
2022/02/17 07:16:53;;;;;;;96.03;55.53;;;;;;;;;;4433929;32;20209;-57
2022/02/17 07:19:20;;;;;;;86.70;51.13;;;;;;;;;;4434108;32;20270;-57
2022/02/17 07:21:46;;;;;;;78.33;45.27;;;;;;;;;;4433812;32;20232;-57
2022/02/17 07:24:12;;;;;;;76.83;50.47;;;;;;;;;;4434063;32;20264;-56
2022/02/17 07:26:37;;;;;;;75.67;44.80;;;;;;;;;;4433511;32;20205;-56
2022/02/17 07:29:03;;;;;;;67.83;40.00;;;;;;;;;;4434060;32;20239;-57
2022/02/17 07:31:28;;;;;;;59.43;34.47;;;;;;;;;;4433404;32;20291;-56
2022/02/17 07:33:54;;;;;;;44.37;27.90;;;;;;;;;;4435266;32;20247;-58
2022/02/17 07:36:19;;;;;;;39.93;25.20;;;;;;;;;;4445248;32;20317;-57
2022/02/17 07:38:45;;;;;;;62.83;38.87;;;;;;;;;;4448207;32;20654;-56
2022/02/17 07:41:11;;;;;;;62.47;35.47;;;;;;;;;;4448475;32;20271;-56
2022/02/17 07:43:38;;;;;;;57.53;34.23;;;;;;;;;;4447812;32;20360;-56
2022/02/17 07:46:04;;;;;;;58.90;35.73;;;;;;;;;;4447175;32;20351;-58
2022/02/17 07:48:29;;;;;;;59.13;34.43;;;;;;;;;;4448804;32;20395;-57
2022/02/17 07:50:56;;;;;;;66.73;34.87;;;;;;;;;;4448994;32;20315;-57
2022/02/17 07:53:22;;;;;;;54.53;30.60;;;;;;;;;;4448266;32;20228;-57
2022/02/17 07:55:48;;;;;;;49.00;27.87;;;;;;;;;;4448490;32;20205;-56
2022/02/17 07:58:17;;;;;;;43.90;22.33;;;;;;;;;;4446509;32;20300;-57
2022/02/17 08:00:43;;;;;;;36.50;18.83;;;;;;;;;;4446463;32;20270;-57
2022/02/17 08:03:10;;;;;;;36.53;13.67;;;;;;;;;;4446665;32;20244;-56
2022/02/17 08:05:38;;;;;;;27.70;12.53;;;;;;;;;;4446721;32;20365;-56
2022/02/17 08:08:09;;;;;;;27.17;12.87;;;;;;;;;;4446144;32;20425;-57
2022/02/17 08:10:35;;;;;;;29.63;13.53;;;;;;;;;;4446467;32;20343;-57
2022/02/17 08:13:02;;;;;;;27.63;14.90;;;;;;;;;;4440837;32;20348;-57
2022/02/17 08:15:28;;;;;;;28.87;17.57;;;;;;;;;;4432772;32;20243;-57
2022/02/17 08:17:53;;;;;;;34.87;19.20;;;;;;;;;;4432727;32;20395;-58
2022/02/17 08:20:19;;;;;;;30.37;17.30;;;;;;;;;;4432757;32;20392;-58
2022/02/17 08:22:49;;;;;;;32.30;20.97;;;;;;;;;;4432616;32;20297;-56
2022/02/17 08:25:15;;;;;;;32.63;18.07;;;;;;;;;;4432255;32;20325;-56
2022/02/17 08:27:41;;;;;;;43.87;21.70;;;;;;;;;;4432713;32;20224;-57
2022/02/17 08:30:07;;;;;;;41.03;21.80;;;;;;;;;;4432550;32;20271;-56
2022/02/17 08:32:37;;;;;;;33.17;17.93;;;;;;;;;;4432405;32;20225;-56
2022/02/17 08:35:04;;;;;;;40.87;19.63;;;;;;;;;;4434494;32;20220;-57
2022/02/17 08:37:29;;;;;;;44.40;22.93;;;;;;;;;;4447681;32;20699;-57
2022/02/17 08:39:55;;;;;;;38.13;18.87;;;;;;;;;;4447688;32;20351;-58
2022/02/17 08:42:21;;;;;;;34.93;19.63;;;;;;;;;;4445975;32;20245;-57
2022/02/17 08:44:46;;;;;;;53.83;25.73;;;;;;;;;;4447668;32;20298;-56
2022/02/17 08:47:14;;;;;;;44.23;21.67;;;;;;;;;;4447730;32;20667;-55
2022/02/17 08:49:39;;;;;;;42.83;23.13;;;;;;;;;;4447617;32;20282;-56
2022/02/17 08:52:05;;;;;;;44.23;23.17;;;;;;;;;;4447692;32;20318;-57
2022/02/17 08:54:31;;;;;;;27.07;14.23;;;;;;;;;;4446351;32;20391;-57
2022/02/17 08:56:56;;;;;;;27.03;13.57;;;;;;;;;;4447900;32;20199;-57
2022/02/17 08:59:22;;;;;;;34.20;15.50;;;;;;;;;;4446737;32;20313;-57
2022/02/17 09:01:47;;;;;;;24.87;13.57;;;;;;;;;;4447469;32;20243;-57
2022/02/17 09:04:13;;;;;;;30.93;14.30;;;;;;;;;;4447782;32;20280;-57
2022/02/17 09:06:38;;;;;;;26.10;15.67;;;;;;;;;;4446314;32;20246;-56
2022/02/17 09:09:04;;;;;;;27.10;16.80;;;;;;;;;;4434711;32;20657;-56
2022/02/17 09:11:29;;;;;;;25.17;13.47;;;;;;;;;;4445948;32;20803;-57
2022/02/17 09:13:55;;;;;;;23.37;14.47;;;;;;;;;;4437877;32;20374;-55
2022/02/17 09:16:21;;;;;;;26.57;13.33;;;;;;;;;;4431899;32;20296;-56
2022/02/17 09:18:46;;;;;;;22.27;11.83;;;;;;;;;;4432404;32;20625;-56
2022/02/17 09:21:14;;;;;;;28.80;13.37;;;;;;;;;;4432134;32;20276;-58
2022/02/17 09:23:40;;;;;;;28.93;16.80;;;;;;;;;;4431917;32;20237;-56
2022/02/17 09:26:07;;;;;;;33.00;15.37;;;;;;;;;;4430454;32;20700;-59
2022/02/17 09:28:32;;;;;;;27.43;17.80;;;;;;;;;;4431639;32;20372;-56
2022/02/17 09:30:58;;;;;;;31.47;19.03;;;;;;;;;;4431742;32;20280;-57
2022/02/17 09:33:24;;;;;;;23.67;13.97;;;;;;;;;;4446135;32;20350;-56
2022/02/17 09:35:49;;;;;;;25.73;15.97;;;;;;;;;;4447126;32;20726;-58
2022/02/17 09:38:15;;;;;;;25.13;15.23;;;;;;;;;;4447055;32;20325;-56
2022/02/17 09:40:42;;;;;;;20.57;15.03;;;;;;;;;;4446977;32;20335;-57
2022/02/17 09:43:10;;;;;;;23.20;11.00;;;;;;;;;;4439109;32;20568;-56
2022/02/17 09:45:43;;;;;;;19.87;10.03;;;;;;;;;;4447004;32;20722;-55
2022/02/17 09:48:09;;;;;;;24.50;11.43;;;;;;;;;;4446554;32;20236;-57
2022/02/17 09:50:35;;;;;;;20.77;9.60;;;;;;;;;;4446831;32;20715;-56
2022/02/17 09:53:02;;;;;;;19.13;7.87;;;;;;;;;;4432887;32;20770;-57
2022/02/17 09:55:28;;;;;;;19.97;9.30;;;;;;;;;;4446589;32;20243;-56
2022/02/17 09:57:55;;;;;;;20.40;8.03;;;;;;;;;;4446981;32;20350;-56
2022/02/17 10:00:21;;;;;;;29.67;7.97;;;;;;;;;;4446512;32;20684;-57
2022/02/17 10:02:47;;;;;;;15.90;7.00;;;;;;;;;;4446533;32;20692;-56
2022/02/17 10:05:13;;;;;;;21.67;8.53;;;;;;;;;;4463123;32;20495;-56
2022/02/17 10:07:42;;;;;;;16.13;6.87;;;;;;;;;;4461318;32;20285;-56
2022/02/17 10:10:14;;;;;;;17.50;7.63;;;;;;;;;;4449549;32;20303;-57
2022/02/17 10:13:01;;;;;;;12.57;8.23;;;;;;;;;;4449705;32;20235;-56
2022/02/17 10:15:31;;;;;;;13.43;5.27;;;;;;;;;;4449432;32;20604;-56
2022/02/17 10:18:00;;;;;;;17.63;5.10;;;;;;;;;;4436244;32;20236;-58
2022/02/17 10:20:27;;;;;;;9.83;4.60;;;;;;;;;;4449667;32;20208;-56
2022/02/17 10:22:52;;;;;;;7.63;4.53;;;;;;;;;;4449596;32;20234;-56
2022/02/17 10:25:20;;;;;;;10.43;7.07;;;;;;;;;;4449157;32;20317;-58
2022/02/17 10:27:45;;;;;;;13.37;5.90;;;;;;;;;;4449257;32;20209;-56
2022/02/17 10:30:19;;;;;;;12.97;7.00;;;;;;;;;;4448235;32;20287;-57
2022/02/17 10:32:57;;;;;;;14.43;8.00;;;;;;;;;;4448407;32;20236;-57
2022/02/17 10:35:25;;;;;;;17.03;7.40;;;;;;;;;;4448113;32;20260;-57
2022/02/17 10:37:55;;;;;;;28.70;7.53;;;;;;;;;;4449482;32;20220;-57
2022/02/17 10:40:22;;;;;;;15.37;7.70;;;;;;;;;;4449585;32;20240;-57
2022/02/17 10:42:57;;;;;;;15.33;7.87;;;;;;;;;;4449117;32;20252;-56
2022/02/17 10:45:23;;;;;;;8.93;6.03;;;;;;;;;;4449383;32;20354;-57
2022/02/17 10:47:49;;;;;;;10.67;6.43;;;;;;;;;;4447907;32;20284;-56
2022/02/17 10:50:18;;;;;;;25.93;15.67;;;;;;;;;;4449494;32;20376;-57
2022/02/17 10:52:45;;;;;;;28.93;11.50;;;;;;;;;;4448103;32;20344;-57
2022/02/17 10:55:11;;;;;;;23.57;10.10;;;;;;;;;;4448326;32;20301;-57
2022/02/17 10:57:37;;;;;;;17.67;10.20;;;;;;;;;;4448826;32;20284;-56
2022/02/17 11:00:23;;;;;;;26.97;17.37;;;;;;;;;;4449179;32;20276;-56
2022/02/17 11:02:50;;;;;;;11.87;7.00;;;;;;;;;;4447720;32;20307;-58
2022/02/17 11:05:17;;;;;;;23.90;11.90;;;;;;;;;;4449055;32;20314;-56
2022/02/17 11:07:44;;;;;;;14.00;9.40;;;;;;;;;;4447423;32;20311;-57
2022/02/17 11:10:11;;;;;;;20.57;11.23;;;;;;;;;;4448738;32;20714;-56
2022/02/17 11:12:38;;;;;;;14.77;8.37;;;;;;;;;;4447785;32;20212;-56
2022/02/17 11:15:05;;;;;;;11.97;8.00;;;;;;;;;;4433788;32;20239;-57
2022/02/17 11:17:39;;;;;;;17.93;7.57;;;;;;;;;;4432836;32;20221;-56
2022/02/17 11:20:16;;;;;;;25.43;10.30;;;;;;;;;;4434668;32;20325;-57
2022/02/17 11:22:42;;;;;;;21.83;8.50;;;;;;;;;;4449085;32;20228;-57
2022/02/17 11:25:10;;;;;;;11.73;6.43;;;;;;;;;;4448826;32;20303;-57
2022/02/17 11:28:06;;;;;;;15.80;6.10;;;;;;;;;;4447472;32;20308;-55
2022/02/17 11:30:33;;;;;;;12.53;7.33;;;;;;;;;;4449073;32;20337;-55
2022/02/17 11:33:25;;;;;;;11.67;8.23;;;;;;;;;;4448755;32;20259;-55
2022/02/17 11:35:53;;;;;;;26.50;7.83;;;;;;;;;;4448882;32;20607;-56
2022/02/17 11:38:36;;;;;;;28.03;9.73;;;;;;;;;;4448629;32;20239;-56
2022/02/17 11:41:13;;;;;;;13.73;7.60;;;;;;;;;;4447447;32;20279;-55
2022/02/17 11:43:42;;;;;;;10.03;6.97;;;;;;;;;;4448564;32;20273;-56
2022/02/17 11:46:14;;;;;;;6.57;4.73;;;;;;;;;;4434281;32;20244;-55
2022/02/17 11:48:48;;;;;;;10.57;4.93;;;;;;;;;;4448319;32;20244;-57
2022/02/17 11:51:17;;;;;;;15.60;5.83;;;;;;;;;;4448288;32;20212;-56
2022/02/17 11:54:15;;;;;;;12.00;5.70;;;;;;;;;;4449057;32;20270;-56
2022/02/17 11:56:47;;;;;;;22.70;9.37;;;;;;;;;;4449483;32;20236;-56
2022/02/17 11:59:34;;;;;;;132.37;58.13;;;;;;;;;;4449476;32;20263;-56
2022/02/17 12:02:08;;;;;;;23.70;10.90;;;;;;;;;;4448866;32;20605;-56
2022/02/17 12:04:34;;;;;;;21.60;7.93;;;;;;;;;;4449152;32;20228;-56
2022/02/17 12:07:33;;;;;;;10.63;7.77;;;;;;;;;;4448947;32;20285;-55
2022/02/17 12:09:58;;;;;;;25.40;12.73;;;;;;;;;;4433212;32;20221;-56
2022/02/17 12:12:26;;;;;;;48.87;22.67;;;;;;;;;;4432841;32;20673;-56
2022/02/17 12:14:57;;;;;;;50.80;26.97;;;;;;;;;;4449202;32;20256;-56
2022/02/17 12:17:32;;;;;;;19.70;9.27;;;;;;;;;;4447854;32;20679;-56
2022/02/17 12:20:14;;;;;;;9.87;5.40;;;;;;;;;;4448516;32;20540;-56
2022/02/17 12:22:56;;;;;;;10.20;6.23;;;;;;;;;;4448470;32;20205;-55
2022/02/17 12:25:22;;;;;;;19.43;7.97;;;;;;;;;;4448420;32;20641;-56
2022/02/17 12:27:56;;;;;;;35.63;14.00;;;;;;;;;;4447856;32;20223;-56
2022/02/17 12:30:26;;;;;;;19.10;9.27;;;;;;;;;;4448240;32;20511;-56
2022/02/17 12:33:07;;;;;;;11.30;5.87;;;;;;;;;;4448638;32;20656;-56
2022/02/17 12:35:34;;;;;;;24.10;9.20;;;;;;;;;;4447711;32;20292;-56
2022/02/17 12:38:05;;;;;;;95.20;42.93;;;;;;;;;;4447844;32;20721;-57
2022/02/17 12:40:30;;;;;;;24.57;10.40;;;;;;;;;;4447974;32;20250;-56
2022/02/17 12:42:56;;;;;;;13.30;6.37;;;;;;;;;;4448103;32;20240;-56
2022/02/17 12:45:39;;;;;;;9.03;5.07;;;;;;;;;;4448030;32;20324;-57
2022/02/17 12:48:06;;;;;;;12.80;7.13;;;;;;;;;;4447945;32;20308;-56
2022/02/17 12:50:35;;;;;;;15.10;6.40;;;;;;;;;;4448157;32;20235;-56
2022/02/17 12:53:03;;;;;;;11.30;5.57;;;;;;;;;;4448243;32;20698;-56
2022/02/17 12:55:58;;;;;;;13.83;5.00;;;;;;;;;;4447836;32;20573;-56
2022/02/17 12:58:35;;;;;;;71.13;32.07;;;;;;;;;;4433232;32;20306;-57
2022/02/17 13:01:01;;;;;;;16.03;8.60;;;;;;;;;;4447834;32;20269;-55
2022/02/17 13:03:38;;;;;;;16.67;6.57;;;;;;;;;;4447642;32;20688;-55
2022/02/17 13:06:18;;;;;;;6.37;4.33;;;;;;;;;;4447985;32;20651;-55
2022/02/17 13:08:48;;;;;;;13.33;5.90;;;;;;;;;;4447426;32;20331;-56
2022/02/17 13:11:15;;;;;;;29.13;16.57;;;;;;;;;;4447430;32;20252;-57
2022/02/17 13:13:41;;;;;;;6.53;4.10;;;;;;;;;;4443594;32;20320;-55
2022/02/17 13:16:08;;;;;;;25.03;15.47;;;;;;;;;;4432455;32;20284;-57
2022/02/17 13:18:34;;;;;;;13.23;7.27;;;;;;;;;;4432007;32;20247;-56
2022/02/17 13:21:10;;;;;;;10.70;6.40;;;;;;;;;;4437967;32;20664;-56
2022/02/17 13:23:35;;;;;;;14.20;6.43;;;;;;;;;;4447405;32;20366;-55
2022/02/17 13:26:01;;;;;;;9.03;5.57;;;;;;;;;;4448877;32;20796;-58
2022/02/17 13:28:27;;;;;;;7.47;5.73;;;;;;;;;;4445474;32;20361;-57
2022/02/17 13:30:52;;;;;;;36.07;15.33;;;;;;;;;;4447397;32;20362;-56
2022/02/17 13:33:27;;;;;;;16.07;5.90;;;;;;;;;;4447190;32;20600;-55
2022/02/17 13:35:56;;;;;;;20.07;8.13;;;;;;;;;;4447315;32;20220;-57
2022/02/17 13:38:30;;;;;;;11.97;7.80;;;;;;;;;;4446627;32;20338;-57
2022/02/17 13:40:57;;;;;;;19.57;8.03;;;;;;;;;;4433337;32;20343;-57
2022/02/17 13:43:23;;;;;;;16.63;8.47;;;;;;;;;;4445925;32;20234;-57
2022/02/17 13:46:01;;;;;;;25.80;8.87;;;;;;;;;;4447547;32;20711;-57
2022/02/17 13:48:33;;;;;;;17.93;10.53;;;;;;;;;;4432625;32;20278;-57
2022/02/17 13:51:11;;;;;;;15.97;8.83;;;;;;;;;;4447461;32;20669;-57
2022/02/17 13:53:39;;;;;;;21.37;8.63;;;;;;;;;;4447052;32;20696;-57
2022/02/17 13:56:06;;;;;;;16.40;9.70;;;;;;;;;;4433030;32;20644;-57
2022/02/17 13:58:33;;;;;;;19.97;11.20;;;;;;;;;;4447073;32;20741;-57
2022/02/17 14:00:59;;;;;;;10.77;5.93;;;;;;;;;;4447297;32;20673;-57
2022/02/17 14:03:25;;;;;;;14.67;4.77;;;;;;;;;;4461428;32;20502;-57
2022/02/17 14:05:51;;;;;;;6.93;4.70;;;;;;;;;;4462857;32;20355;-57
2022/02/17 14:08:18;;;;;;;9.50;5.27;;;;;;;;;;4445215;32;20258;-56
2022/02/17 14:10:44;;;;;;;9.33;4.50;;;;;;;;;;4445943;32;20490;-55
2022/02/17 14:13:10;;;;;;;7.57;3.80;;;;;;;;;;4446401;32;20228;-55
2022/02/17 14:15:35;;;;;;;5.87;4.17;;;;;;;;;;4447417;32;20554;-56
2022/02/17 14:18:01;;;;;;;14.27;4.27;;;;;;;;;;4446982;32;20365;-55
2022/02/17 14:20:26;;;;;;;8.03;5.27;;;;;;;;;;4445935;32;20303;-57
2022/02/17 14:22:52;;;;;;;12.40;8.57;;;;;;;;;;4447268;32;20233;-57
2022/02/17 14:25:17;;;;;;;12.23;7.30;;;;;;;;;;4447109;32;20409;-56